Syracuse, KS (67878)

6:13 PM MDT on May 27, 2015 (GMT -0600)
Pics By Clayton Photography | | Change Station
CLOSE
Current Station
Personal Weather Station
Location: Kendall, KS
Elevation: 3172 ft
Nearby Weather Stations
Active Advisory: Tornado Watch Active Notice: Public Information Statement

Elev 3172 ft 37.93 °N, 101.52 °W | Updated 10 seconds ago

Clear
Clear
70.4 °F
Feels Like 77 °F
N
25.3
Wind Variable Wind from WSW
Gusts 25.3 mph

Today
High -- | Low -- °F
--% Chance of Precip.
Yesterday
High -- | Low -- °F
Precip. -- in
5:28 AM 8:00 PM
Waxing Gibbous, 71% visible
Pressure 29.83 in
Visibility 9.0 miles
Clouds Clear
Heat Index 77 °F
Dew Point 52 °F
Humidity 52%
Rainfall 0.00 in
Snow Depth Not available.
UV 0.0 out of 12
Pollen 7.90 out of 12
Air Quality Not available.
Flu Activity No Activity
METAR KLAA 272353Z AUTO 17016KT 9SM CLR 22/09 A2993 RMK AO2 SLP100 T02220089 10283 20222 58011 TSNO

More Conditions Fewer Conditions

Pressure 29.83 in
Visibility 9.0 miles
Clouds Clear
Heat Index 77 °F
Dew Point 52 °F
Humidity 52%
Rainfall 0.00 in
Snow Depth Not available.
UV 0.0 out of 12
Pollen 7.90 out of 12
Air Quality Not available.
Flu Activity No Activity
METAR KLAA 272353Z AUTO 17016KT 9SM CLR 22/09 A2993 RMK AO2 SLP100 T02220089 10283 20222 58011 TSNO

More Conditions Fewer Conditions

10-Day Weather Forecast

Almanac

Astronomy

May. 27, 2015 Rise Set
Actual Time
Civil Twilight
Nautical Twilight
Astronomical Twilight
Moon
Length of Visible Light
Length of Day
Tomorrow will be .
, % of the Moon is Illuminated

Today's Extremes

State Highs State Lows

Community

WunderPhotos

Upload Photos

1,824,829 photos uploaded!

WunderBlogs® & News

Nearby

Air Quality

  Air Quality AQ Index Pollutant
Not available.

Snow Depth

Station Depth Elevation

Earthquake Activity

City Distance Mag. Time & Date
Minimum magnitude displayed is 2.5.

Coastal Water Temperatures

Place Temperature

Stations

Nearby Weather Stations

Station Location Temp. Windchill Dew Point Humidity Wind Precip. Elev Updated Type
                   
Tornado Watch
Statement as of 7:03 PM CDT on May 27, 2015

Tornado Watch 230 remains in effect until 1000 PM CDT for the
following locations

KS
. Kansas counties included are

Cheyenne Clark Finney
Ford Gove Grant
gray Greeley Hamilton
Haskell Hodgeman Kearny
Lane Logan Meade
Morton Ness Rawlins
Scott Seward Sheridan
Sherman Stanton Stevens
Thomas Wallace Wichita